FLX706D SBPS-SBSG
Flight info
| Callsign | FLX706D |
|---|---|
| Flight time | 1h 40m |
| Altitude | 39000 |
| Route | DAKEN UZ73 ESMIG UZ72 LIXAM |
| Aircraft | A20N/M-SDE2E3FGHIRWXY/LB1 |
Departure
| Time | 2026-05-04 19:52 |
|---|---|
| Airport | Porto Seguro International Airport (SBPS) |
Arrival
| Time | 2026-05-04 21:33 |
|---|---|
| Airport | Rio Grande do Norte/São Gonçalo do Amarante–Governador Aluízio Alves International Airport (SBSG) |
| Time | Latitude | Longitude | Altitude | Speed | Heading |
|---|---|---|---|---|---|
| 2026-05-04 19:44 | -16.44089 | -39.08167 | 164 ft | 0 kts | 164° |
| 2026-05-04 19:45 | -16.44084 | -39.08168 | 164 ft | 2 kts | 164° |
| 2026-05-04 19:45 | -16.44070 | -39.08172 | 164 ft | 2 kts | 164° |
| 2026-05-04 19:45 | -16.44056 | -39.08176 | 164 ft | 1 kts | 185° |
| 2026-05-04 19:46 | -16.44044 | -39.08169 | 164 ft | 2 kts | 237° |
| 2026-05-04 19:46 | -16.44041 | -39.08162 | 164 ft | 1 kts | 263° |
| 2026-05-04 19:46 | -16.44040 | -39.08157 | 164 ft | 0 kts | 255° |
| 2026-05-04 19:48 | -16.44047 | -39.08184 | 164 ft | 7 kts | 254° |
| 2026-05-04 19:49 | -16.44068 | -39.08260 | 165 ft | 13 kts | 259° |
| 2026-05-04 19:49 | -16.43993 | -39.08304 | 165 ft | 14 kts | 344° |
| 2026-05-04 19:49 | -16.43928 | -39.08360 | 165 ft | 13 kts | 263° |
| 2026-05-04 19:49 | -16.43961 | -39.08476 | 166 ft | 20 kts | 252° |
| 2026-05-04 19:50 | -16.44007 | -39.08638 | 167 ft | 26 kts | 254° |
| 2026-05-04 19:50 | -16.44048 | -39.08797 | 167 ft | 20 kts | 254° |
| 2026-05-04 19:50 | -16.44078 | -39.08935 | 167 ft | 15 kts | 281° |
| 2026-05-04 19:50 | -16.44083 | -39.08993 | 167 ft | 0 kts | 159° |
| 2026-05-04 19:51 | -16.44090 | -39.08991 | 167 ft | 3 kts | 158° |
| 2026-05-04 19:51 | -16.44092 | -39.08962 | 167 ft | 0 kts | 72° |
| 2026-05-04 19:51 | -16.44004 | -39.08630 | 167 ft | 94 kts | 74° |
| 2026-05-04 19:52 | -16.43750 | -39.07695 | 252 ft | 162 kts | 78° |
| 2026-05-04 19:52 | -16.43425 | -39.06537 | 1023 ft | 171 kts | 79° |
| 2026-05-04 19:52 | -16.43099 | -39.05309 | 1742 ft | 190 kts | 81° |
| 2026-05-04 19:52 | -16.42624 | -39.03956 | 2424 ft | 216 kts | 59° |
| 2026-05-04 19:53 | -16.41280 | -39.03061 | 3057 ft | 251 kts | 18° |
| 2026-05-04 19:53 | -16.39495 | -39.02705 | 3862 ft | 271 kts | 12° |
| 2026-05-04 19:53 | -16.37594 | -39.02380 | 4827 ft | 282 kts | 12° |
| 2026-05-04 19:53 | -16.35667 | -39.02058 | 5996 ft | 284 kts | 12° |
| 2026-05-04 19:54 | -16.33738 | -39.01735 | 7160 ft | 285 kts | 12° |
| 2026-05-04 19:54 | -16.31799 | -39.01406 | 8233 ft | 288 kts | 12° |
| 2026-05-04 19:54 | -16.29802 | -39.01064 | 9240 ft | 292 kts | 12° |
| 2026-05-04 19:54 | -16.27802 | -39.00721 | 10181 ft | 296 kts | 12° |
| 2026-05-04 19:55 | -16.25761 | -39.00368 | 10914 ft | 307 kts | 11° |
| 2026-05-04 19:55 | -16.23590 | -38.99992 | 11420 ft | 325 kts | 11° |
| 2026-05-04 19:55 | -16.21275 | -38.99593 | 11895 ft | 343 kts | 11° |
| 2026-05-04 19:55 | -16.18879 | -38.99181 | 12559 ft | 353 kts | 11° |
| 2026-05-04 19:56 | -16.16434 | -38.98762 | 13329 ft | 358 kts | 11° |
| 2026-05-04 19:56 | -16.13961 | -38.98336 | 14100 ft | 362 kts | 10° |
| 2026-05-04 19:56 | -16.11469 | -38.97908 | 14859 ft | 365 kts | 10° |
| 2026-05-04 19:56 | -16.08954 | -38.97477 | 15591 ft | 369 kts | 10° |
| 2026-05-04 19:57 | -16.06418 | -38.97046 | 16281 ft | 373 kts | 9° |
| 2026-05-04 19:57 | -16.03837 | -38.96726 | 16940 ft | 377 kts | 5° |
| 2026-05-04 19:57 | -16.01208 | -38.96559 | 17580 ft | 381 kts | 3° |
| 2026-05-04 19:57 | -15.98533 | -38.96429 | 18220 ft | 385 kts | 2° |
| 2026-05-04 19:58 | -15.95844 | -38.96303 | 18868 ft | 388 kts | 2° |
| 2026-05-04 19:58 | -15.93142 | -38.96178 | 19494 ft | 391 kts | 2° |
| 2026-05-04 19:58 | -15.90395 | -38.96050 | 20137 ft | 394 kts | 2° |
| 2026-05-04 19:58 | -15.87643 | -38.95921 | 20773 ft | 396 kts | 2° |
| 2026-05-04 19:59 | -15.84888 | -38.95790 | 21393 ft | 399 kts | 1° |
| 2026-05-04 19:59 | -15.82085 | -38.95657 | 22015 ft | 401 kts | 1° |
| 2026-05-04 19:59 | -15.79286 | -38.95525 | 22644 ft | 404 kts | 1° |
| 2026-05-04 19:59 | -15.76469 | -38.95393 | 23256 ft | 407 kts | 1° |
| 2026-05-04 20:00 | -15.73618 | -38.95257 | 23855 ft | 410 kts | 1° |
| 2026-05-04 20:00 | -15.70757 | -38.95121 | 24448 ft | 413 kts | 1° |
| 2026-05-04 20:00 | -15.67872 | -38.94985 | 25017 ft | 417 kts | 1° |
| 2026-05-04 20:00 | -15.64986 | -38.94848 | 25567 ft | 420 kts | 1° |
| 2026-05-04 20:01 | -15.62035 | -38.94707 | 26127 ft | 423 kts | 1° |
| 2026-05-04 20:01 | -15.59076 | -38.94568 | 26652 ft | 427 kts | 1° |
| 2026-05-04 20:01 | -15.56080 | -38.94426 | 27161 ft | 431 kts | 1° |
| 2026-05-04 20:01 | -15.53079 | -38.94284 | 27655 ft | 434 kts | 1° |
| 2026-05-04 20:02 | -15.50037 | -38.94138 | 28136 ft | 438 kts | 1° |
| 2026-05-04 20:02 | -15.46997 | -38.93993 | 28587 ft | 441 kts | 1° |
| 2026-05-04 20:02 | -15.43924 | -38.93849 | 29014 ft | 444 kts | 1° |
| 2026-05-04 20:02 | -15.40814 | -38.93700 | 29428 ft | 448 kts | 1° |
| 2026-05-04 20:03 | -15.37685 | -38.93550 | 29826 ft | 451 kts | 1° |
| 2026-05-04 20:03 | -15.34513 | -38.93399 | 30210 ft | 454 kts | 0° |
| 2026-05-04 20:03 | -15.31344 | -38.93248 | 30587 ft | 457 kts | 0° |
| 2026-05-04 20:03 | -15.28158 | -38.93096 | 30936 ft | 460 kts | 0° |
| 2026-05-04 20:04 | -15.24913 | -38.92942 | 31258 ft | 463 kts | 0° |
| 2026-05-04 20:04 | -15.21676 | -38.92709 | 31558 ft | 467 kts | 3° |
| 2026-05-04 20:04 | -15.18429 | -38.92298 | 31848 ft | 471 kts | 6° |
| 2026-05-04 20:04 | -15.15191 | -38.91698 | 32231 ft | 473 kts | 9° |
| 2026-05-04 20:05 | -15.12000 | -38.90913 | 32653 ft | 473 kts | 12° |
| 2026-05-04 20:05 | -15.08836 | -38.89950 | 33056 ft | 474 kts | 15° |
| 2026-05-04 20:05 | -15.05662 | -38.88919 | 33471 ft | 474 kts | 15° |
| 2026-05-04 20:05 | -15.02528 | -38.87893 | 33895 ft | 473 kts | 15° |
| 2026-05-04 20:06 | -14.99412 | -38.86872 | 34317 ft | 472 kts | 14° |
| 2026-05-04 20:06 | -14.96248 | -38.85838 | 34731 ft | 472 kts | 14° |
| 2026-05-04 20:06 | -14.93111 | -38.84816 | 35142 ft | 471 kts | 14° |
| 2026-05-04 20:06 | -14.90007 | -38.83807 | 35544 ft | 470 kts | 14° |
| 2026-05-04 20:07 | -14.86864 | -38.82787 | 35912 ft | 469 kts | 14° |
| 2026-05-04 20:07 | -14.83746 | -38.81775 | 36249 ft | 469 kts | 14° |
| 2026-05-04 20:07 | -14.80615 | -38.80760 | 36562 ft | 469 kts | 14° |
| 2026-05-04 20:07 | -14.77474 | -38.79742 | 36858 ft | 470 kts | 14° |
| 2026-05-04 20:08 | -14.74382 | -38.78740 | 37157 ft | 470 kts | 14° |
| 2026-05-04 20:08 | -14.71266 | -38.77730 | 37431 ft | 470 kts | 14° |
| 2026-05-04 20:08 | -14.68114 | -38.76707 | 37679 ft | 471 kts | 14° |
| 2026-05-04 20:08 | -14.64999 | -38.75698 | 37890 ft | 472 kts | 14° |
| 2026-05-04 20:09 | -14.61828 | -38.74672 | 38084 ft | 474 kts | 14° |
| 2026-05-04 20:09 | -14.58697 | -38.73660 | 38274 ft | 475 kts | 14° |
| 2026-05-04 20:09 | -14.55494 | -38.72628 | 38466 ft | 476 kts | 14° |
| 2026-05-04 20:09 | -14.52343 | -38.71610 | 38687 ft | 477 kts | 14° |
| 2026-05-04 20:10 | -14.49195 | -38.70592 | 38902 ft | 477 kts | 14° |
| 2026-05-04 20:10 | -14.46000 | -38.69559 | 39029 ft | 478 kts | 14° |
| 2026-05-04 20:10 | -14.42808 | -38.68528 | 39030 ft | 478 kts | 14° |
| 2026-05-04 20:11 | -14.36432 | -38.66467 | 39032 ft | 479 kts | 14° |
| 2026-05-04 20:11 | -14.30053 | -38.64405 | 39029 ft | 478 kts | 14° |
| 2026-05-04 20:12 | -14.23716 | -38.62358 | 39029 ft | 479 kts | 14° |
| 2026-05-04 20:12 | -14.17355 | -38.60305 | 39031 ft | 478 kts | 14° |
| 2026-05-04 20:13 | -14.10960 | -38.58242 | 39035 ft | 478 kts | 14° |
| 2026-05-04 20:13 | -14.04615 | -38.56196 | 39034 ft | 478 kts | 14° |
| 2026-05-04 20:14 | -13.98269 | -38.54148 | 39034 ft | 477 kts | 14° |
| 2026-05-04 20:14 | -13.91944 | -38.52108 | 39032 ft | 478 kts | 14° |
| 2026-05-04 20:15 | -13.85537 | -38.50237 | 39030 ft | 476 kts | 12° |
| 2026-05-04 20:15 | -13.79090 | -38.48506 | 39028 ft | 476 kts | 12° |
| 2026-05-04 20:16 | -13.72674 | -38.46781 | 39027 ft | 476 kts | 12° |
| 2026-05-04 20:16 | -13.66267 | -38.45055 | 39031 ft | 475 kts | 12° |
| 2026-05-04 20:17 | -13.59816 | -38.43317 | 39031 ft | 475 kts | 12° |
| 2026-05-04 20:17 | -13.53448 | -38.41602 | 39029 ft | 475 kts | 12° |
| 2026-05-04 20:18 | -13.47018 | -38.39870 | 39026 ft | 475 kts | 12° |
| 2026-05-04 20:18 | -13.40632 | -38.38152 | 39026 ft | 475 kts | 12° |
| 2026-05-04 20:19 | -13.34235 | -38.36431 | 39030 ft | 475 kts | 12° |
| 2026-05-04 20:19 | -13.27822 | -38.34707 | 39031 ft | 475 kts | 12° |
| 2026-05-04 20:20 | -13.21423 | -38.32986 | 39031 ft | 475 kts | 12° |
| 2026-05-04 20:20 | -13.15006 | -38.31261 | 39030 ft | 474 kts | 12° |
| 2026-05-04 20:21 | -13.08630 | -38.29549 | 39029 ft | 474 kts | 12° |
| 2026-05-04 20:21 | -12.99041 | -38.26987 | 39025 ft | 474 kts | 12° |
| 2026-05-04 20:22 | -12.92629 | -38.25272 | 39025 ft | 474 kts | 12° |
| 2026-05-04 20:22 | -12.86232 | -38.23561 | 39024 ft | 474 kts | 12° |
| 2026-05-04 20:23 | -12.79844 | -38.21852 | 39022 ft | 474 kts | 12° |
| 2026-05-04 20:23 | -12.73425 | -38.20137 | 39024 ft | 473 kts | 12° |
| 2026-05-04 20:24 | -12.67048 | -38.18432 | 39025 ft | 473 kts | 12° |
| 2026-05-04 20:24 | -12.60698 | -38.16736 | 39026 ft | 473 kts | 12° |
| 2026-05-04 20:25 | -12.54308 | -38.15029 | 39027 ft | 472 kts | 12° |
| 2026-05-04 20:25 | -12.47924 | -38.13324 | 39027 ft | 472 kts | 12° |
| 2026-05-04 20:26 | -12.41575 | -38.11630 | 39029 ft | 472 kts | 12° |
| 2026-05-04 20:26 | -12.35181 | -38.09923 | 39030 ft | 473 kts | 12° |
| 2026-05-04 20:27 | -12.28812 | -38.08226 | 39031 ft | 473 kts | 12° |
| 2026-05-04 20:27 | -12.22411 | -38.06527 | 39032 ft | 472 kts | 12° |
| 2026-05-04 20:28 | -12.16081 | -38.04847 | 39034 ft | 471 kts | 13° |
| 2026-05-04 20:28 | -12.09692 | -38.03148 | 39035 ft | 471 kts | 13° |
| 2026-05-04 20:29 | -12.03337 | -38.01459 | 39037 ft | 471 kts | 13° |
| 2026-05-04 20:29 | -11.96974 | -37.99767 | 39038 ft | 472 kts | 12° |
| 2026-05-04 20:30 | -11.90595 | -37.98074 | 39038 ft | 473 kts | 12° |
| 2026-05-04 20:30 | -11.84156 | -37.96365 | 39037 ft | 473 kts | 12° |
| 2026-05-04 20:31 | -11.77795 | -37.94677 | 39036 ft | 472 kts | 12° |
| 2026-05-04 20:31 | -11.71406 | -37.92983 | 39036 ft | 471 kts | 13° |
| 2026-05-04 20:32 | -11.65059 | -37.91299 | 39035 ft | 471 kts | 13° |
| 2026-05-04 20:32 | -11.58688 | -37.89610 | 39035 ft | 471 kts | 13° |
| 2026-05-04 20:33 | -11.52316 | -37.87920 | 39035 ft | 471 kts | 13° |
| 2026-05-04 20:33 | -11.45960 | -37.86237 | 39034 ft | 472 kts | 13° |
| 2026-05-04 20:34 | -11.39593 | -37.84557 | 39036 ft | 473 kts | 12° |
| 2026-05-04 20:34 | -11.33198 | -37.82869 | 39038 ft | 472 kts | 13° |
| 2026-05-04 20:35 | -11.26821 | -37.81184 | 39040 ft | 472 kts | 13° |
| 2026-05-04 20:35 | -11.20489 | -37.79509 | 39040 ft | 471 kts | 13° |
| 2026-05-04 20:36 | -11.14117 | -37.77827 | 39037 ft | 471 kts | 13° |
| 2026-05-04 20:36 | -11.07742 | -37.76144 | 39033 ft | 471 kts | 13° |
| 2026-05-04 20:37 | -11.01395 | -37.74468 | 39037 ft | 472 kts | 13° |
| 2026-05-04 20:37 | -10.95005 | -37.72781 | 39036 ft | 472 kts | 13° |
| 2026-05-04 20:38 | -10.88604 | -37.71093 | 39038 ft | 472 kts | 13° |
| 2026-05-04 20:38 | -10.82212 | -37.69407 | 39040 ft | 472 kts | 13° |
| 2026-05-04 20:39 | -10.75818 | -37.67722 | 39043 ft | 472 kts | 13° |
| 2026-05-04 20:39 | -10.69457 | -37.66045 | 39043 ft | 471 kts | 13° |
| 2026-05-04 20:40 | -10.63115 | -37.64375 | 39043 ft | 470 kts | 13° |
| 2026-05-04 20:40 | -10.56766 | -37.62701 | 39044 ft | 471 kts | 13° |
| 2026-05-04 20:41 | -10.50383 | -37.61022 | 39045 ft | 471 kts | 12° |
| 2026-05-04 20:41 | -10.44046 | -37.59362 | 39044 ft | 471 kts | 13° |
| 2026-05-04 20:42 | -10.37670 | -37.57690 | 39043 ft | 471 kts | 13° |
| 2026-05-04 20:42 | -10.31292 | -37.56017 | 39042 ft | 471 kts | 13° |
| 2026-05-04 20:43 | -10.24947 | -37.54353 | 39040 ft | 471 kts | 12° |
| 2026-05-04 20:43 | -10.18570 | -37.52680 | 39037 ft | 471 kts | 13° |
| 2026-05-04 20:44 | -10.12201 | -37.51009 | 39034 ft | 471 kts | 12° |
| 2026-05-04 20:44 | -10.05854 | -37.49346 | 39034 ft | 471 kts | 12° |
| 2026-05-04 20:45 | -9.99506 | -37.47684 | 39030 ft | 471 kts | 13° |
| 2026-05-04 20:45 | -9.93162 | -37.46022 | 39028 ft | 471 kts | 13° |
| 2026-05-04 20:46 | -9.86756 | -37.44345 | 39024 ft | 470 kts | 13° |
| 2026-05-04 20:46 | -9.80434 | -37.42690 | 39022 ft | 470 kts | 13° |
| 2026-05-04 20:47 | -9.74081 | -37.41027 | 39019 ft | 470 kts | 13° |
| 2026-05-04 20:47 | -9.67701 | -37.39360 | 39021 ft | 470 kts | 13° |
| 2026-05-04 20:48 | -9.61381 | -37.37707 | 39023 ft | 470 kts | 13° |
| 2026-05-04 20:48 | -9.55046 | -37.36052 | 39024 ft | 470 kts | 13° |
| 2026-05-04 20:49 | -9.48685 | -37.34391 | 39025 ft | 469 kts | 13° |
| 2026-05-04 20:49 | -9.42380 | -37.32745 | 39026 ft | 469 kts | 13° |
| 2026-05-04 20:50 | -9.36030 | -37.31087 | 39030 ft | 469 kts | 13° |
| 2026-05-04 20:50 | -9.29697 | -37.29433 | 39032 ft | 469 kts | 12° |
| 2026-05-04 20:51 | -9.23377 | -37.27784 | 39033 ft | 469 kts | 13° |
| 2026-05-04 20:51 | -9.17030 | -37.26129 | 39037 ft | 468 kts | 13° |
| 2026-05-04 20:52 | -9.10748 | -37.24491 | 39042 ft | 468 kts | 13° |
| 2026-05-04 20:52 | -9.04405 | -37.22836 | 39046 ft | 468 kts | 13° |
| 2026-05-04 20:53 | -8.98096 | -37.21192 | 39051 ft | 468 kts | 13° |
| 2026-05-04 20:53 | -8.91748 | -37.19544 | 39054 ft | 468 kts | 13° |
| 2026-05-04 20:54 | -8.85422 | -37.17900 | 39056 ft | 468 kts | 13° |
| 2026-05-04 20:54 | -8.79106 | -37.16257 | 39059 ft | 468 kts | 13° |
| 2026-05-04 20:55 | -8.72798 | -37.14617 | 39060 ft | 468 kts | 13° |
| 2026-05-04 20:55 | -8.66443 | -37.12965 | 39066 ft | 469 kts | 13° |
| 2026-05-04 20:56 | -8.60113 | -37.11319 | 39068 ft | 469 kts | 13° |
| 2026-05-04 20:56 | -8.53782 | -37.09672 | 39072 ft | 469 kts | 13° |
| 2026-05-04 20:57 | -8.47430 | -37.08026 | 39074 ft | 469 kts | 13° |
| 2026-05-04 20:57 | -8.41108 | -37.06387 | 39074 ft | 468 kts | 13° |
| 2026-05-04 20:58 | -8.34773 | -37.04742 | 39072 ft | 468 kts | 13° |
| 2026-05-04 20:58 | -8.28441 | -37.03097 | 39075 ft | 469 kts | 13° |
| 2026-05-04 20:59 | -8.22111 | -37.01455 | 39073 ft | 470 kts | 13° |
| 2026-05-04 20:59 | -8.15738 | -36.99803 | 39068 ft | 470 kts | 13° |
| 2026-05-04 21:00 | -8.09405 | -36.98159 | 39064 ft | 470 kts | 13° |
| 2026-05-04 21:00 | -8.03059 | -36.96512 | 39057 ft | 469 kts | 13° |
| 2026-05-04 21:01 | -7.96703 | -36.94862 | 39056 ft | 469 kts | 13° |
| 2026-05-04 21:01 | -7.90359 | -36.93216 | 39060 ft | 469 kts | 13° |
| 2026-05-04 21:02 | -7.83988 | -36.91567 | 39063 ft | 470 kts | 13° |
| 2026-05-04 21:02 | -7.77643 | -36.89927 | 39058 ft | 472 kts | 13° |
| 2026-05-04 21:03 | -7.71289 | -36.88285 | 39055 ft | 472 kts | 13° |
| 2026-05-04 21:03 | -7.65942 | -36.86902 | 39054 ft | 473 kts | 13° |
| 2026-05-04 21:04 | -7.58514 | -36.84981 | 39052 ft | 473 kts | 13° |
| 2026-05-04 21:04 | -7.52113 | -36.83326 | 39054 ft | 473 kts | 13° |
| 2026-05-04 21:05 | -7.45714 | -36.81672 | 39053 ft | 473 kts | 12° |
| 2026-05-04 21:05 | -7.39342 | -36.80024 | 39053 ft | 473 kts | 12° |
| 2026-05-04 21:06 | -7.32943 | -36.78371 | 39049 ft | 473 kts | 12° |
| 2026-05-04 21:06 | -7.26568 | -36.76723 | 39049 ft | 473 kts | 12° |
| 2026-05-04 21:07 | -7.21267 | -36.75353 | 39044 ft | 472 kts | 12° |
| 2026-05-04 21:07 | -7.13806 | -36.73428 | 39038 ft | 471 kts | 12° |
| 2026-05-04 21:08 | -7.07497 | -36.71798 | 38665 ft | 464 kts | 12° |
| 2026-05-04 21:08 | -7.05401 | -36.71255 | 38141 ft | 464 kts | 12° |
| 2026-05-04 21:08 | -7.01221 | -36.70176 | 36726 ft | 469 kts | 12° |
| 2026-05-04 21:09 | -6.98022 | -36.69350 | 35584 ft | 474 kts | 12° |
| 2026-05-04 21:09 | -6.94825 | -36.68525 | 34464 ft | 478 kts | 13° |
| 2026-05-04 21:09 | -6.91596 | -36.67690 | 33321 ft | 482 kts | 13° |
| 2026-05-04 21:09 | -6.88335 | -36.66848 | 32169 ft | 486 kts | 13° |
| 2026-05-04 21:10 | -6.85064 | -36.66001 | 31085 ft | 490 kts | 13° |
| 2026-05-04 21:10 | -6.81708 | -36.65131 | 30204 ft | 487 kts | 13° |
| 2026-05-04 21:10 | -6.78418 | -36.64278 | 29437 ft | 482 kts | 13° |
| 2026-05-04 21:10 | -6.75228 | -36.63452 | 28822 ft | 475 kts | 13° |
| 2026-05-04 21:11 | -6.72041 | -36.62627 | 28277 ft | 466 kts | 13° |
| 2026-05-04 21:11 | -6.68951 | -36.61676 | 27748 ft | 459 kts | 19° |
| 2026-05-04 21:11 | -6.66013 | -36.60472 | 27242 ft | 451 kts | 24° |
| 2026-05-04 21:11 | -6.63248 | -36.59048 | 26775 ft | 443 kts | 28° |
| 2026-05-04 21:12 | -6.60570 | -36.57538 | 26313 ft | 435 kts | 29° |
| 2026-05-04 21:12 | -6.57976 | -36.56039 | 25857 ft | 429 kts | 30° |
| 2026-05-04 21:12 | -6.55384 | -36.54535 | 25391 ft | 425 kts | 30° |
| 2026-05-04 21:12 | -6.52837 | -36.53061 | 24941 ft | 420 kts | 30° |
| 2026-05-04 21:13 | -6.51145 | -36.52084 | 24643 ft | 416 kts | 30° |
| 2026-05-04 21:13 | -6.48634 | -36.50636 | 24198 ft | 412 kts | 30° |
| 2026-05-04 21:13 | -6.45331 | -36.48734 | 23611 ft | 407 kts | 30° |
| 2026-05-04 21:13 | -6.42909 | -36.47340 | 23179 ft | 403 kts | 31° |
| 2026-05-04 21:14 | -6.41274 | -36.46400 | 22883 ft | 400 kts | 31° |
| 2026-05-04 21:14 | -6.38070 | -36.44556 | 22295 ft | 396 kts | 31° |
| 2026-05-04 21:14 | -6.35689 | -36.43188 | 21860 ft | 391 kts | 31° |
| 2026-05-04 21:14 | -6.33333 | -36.41834 | 21394 ft | 388 kts | 31° |
| 2026-05-04 21:15 | -6.31008 | -36.40501 | 20877 ft | 385 kts | 31° |
| 2026-05-04 21:15 | -6.28666 | -36.39160 | 20340 ft | 383 kts | 31° |
| 2026-05-04 21:15 | -6.27114 | -36.38272 | 19997 ft | 381 kts | 31° |
| 2026-05-04 21:15 | -6.24817 | -36.36955 | 19498 ft | 378 kts | 31° |
| 2026-05-04 21:16 | -6.21791 | -36.35219 | 18818 ft | 375 kts | 32° |
| 2026-05-04 21:16 | -6.20346 | -36.34271 | 18455 ft | 373 kts | 38° |
| 2026-05-04 21:16 | -6.18421 | -36.32525 | 17924 ft | 370 kts | 48° |
| 2026-05-04 21:16 | -6.16371 | -36.29805 | 17210 ft | 367 kts | 56° |
| 2026-05-04 21:17 | -6.14937 | -36.27667 | 16694 ft | 364 kts | 57° |
| 2026-05-04 21:17 | -6.14019 | -36.26287 | 16361 ft | 362 kts | 57° |
| 2026-05-04 21:17 | -6.12161 | -36.23497 | 15705 ft | 358 kts | 57° |
| 2026-05-04 21:17 | -6.10768 | -36.21410 | 15182 ft | 355 kts | 57° |
| 2026-05-04 21:18 | -6.09863 | -36.20058 | 14844 ft | 353 kts | 57° |
| 2026-05-04 21:18 | -6.08489 | -36.18005 | 14357 ft | 349 kts | 56° |
| 2026-05-04 21:18 | -6.06692 | -36.15326 | 13728 ft | 344 kts | 56° |
| 2026-05-04 21:18 | -6.05366 | -36.13349 | 13243 ft | 341 kts | 56° |
| 2026-05-04 21:19 | -6.04491 | -36.12046 | 12925 ft | 338 kts | 56° |
| 2026-05-04 21:19 | -6.03172 | -36.10083 | 12408 ft | 337 kts | 56° |
| 2026-05-04 21:19 | -6.01866 | -36.08141 | 11862 ft | 336 kts | 56° |
| 2026-05-04 21:19 | -6.00132 | -36.05561 | 11128 ft | 334 kts | 56° |
| 2026-05-04 21:20 | -5.99271 | -36.04281 | 10789 ft | 333 kts | 56° |
| 2026-05-04 21:20 | -5.97987 | -36.02370 | 10404 ft | 325 kts | 56° |
| 2026-05-04 21:20 | -5.96346 | -35.99927 | 10165 ft | 306 kts | 57° |
| 2026-05-04 21:20 | -5.95556 | -35.98754 | 10084 ft | 297 kts | 57° |
| 2026-05-04 21:21 | -5.94052 | -35.96516 | 9777 ft | 285 kts | 57° |
| 2026-05-04 21:21 | -5.93320 | -35.95425 | 9492 ft | 284 kts | 57° |
| 2026-05-04 21:21 | -5.92219 | -35.93789 | 9096 ft | 282 kts | 57° |
| 2026-05-04 21:21 | -5.90756 | -35.91615 | 8579 ft | 279 kts | 57° |
| 2026-05-04 21:22 | -5.89674 | -35.90006 | 8204 ft | 276 kts | 58° |
| 2026-05-04 21:22 | -5.88960 | -35.88943 | 7947 ft | 275 kts | 58° |
| 2026-05-04 21:22 | -5.87532 | -35.86821 | 7440 ft | 273 kts | 58° |
| 2026-05-04 21:22 | -5.86829 | -35.85774 | 7183 ft | 272 kts | 58° |
| 2026-05-04 21:23 | -5.85770 | -35.84201 | 6798 ft | 271 kts | 58° |
| 2026-05-04 21:23 | -5.84365 | -35.82111 | 6303 ft | 269 kts | 59° |
| 2026-05-04 21:23 | -5.83667 | -35.81074 | 6058 ft | 268 kts | 59° |
| 2026-05-04 21:23 | -5.82285 | -35.79021 | 5582 ft | 266 kts | 59° |
| 2026-05-04 21:24 | -5.81257 | -35.77492 | 5235 ft | 264 kts | 59° |
| 2026-05-04 21:24 | -5.80568 | -35.76467 | 5004 ft | 262 kts | 60° |
| 2026-05-04 21:24 | -5.79554 | -35.74960 | 4678 ft | 260 kts | 60° |
| 2026-05-04 21:24 | -5.78211 | -35.72964 | 4246 ft | 256 kts | 60° |
| 2026-05-04 21:25 | -5.77214 | -35.71483 | 3912 ft | 255 kts | 60° |
| 2026-05-04 21:25 | -5.76555 | -35.70503 | 3732 ft | 251 kts | 60° |
| 2026-05-04 21:25 | -5.75608 | -35.69100 | 3688 ft | 236 kts | 60° |
| 2026-05-04 21:25 | -5.74395 | -35.67296 | 3639 ft | 231 kts | 61° |
| 2026-05-04 21:26 | -5.73800 | -35.66412 | 3614 ft | 231 kts | 61° |
| 2026-05-04 21:26 | -5.72811 | -35.64559 | 3543 ft | 223 kts | 82° |
| 2026-05-04 21:26 | -5.72692 | -35.63525 | 3477 ft | 220 kts | 94° |
| 2026-05-04 21:26 | -5.72816 | -35.62002 | 3319 ft | 217 kts | 102° |
| 2026-05-04 21:27 | -5.73067 | -35.60508 | 3183 ft | 216 kts | 103° |
| 2026-05-04 21:27 | -5.73417 | -35.58532 | 2923 ft | 215 kts | 103° |
| 2026-05-04 21:27 | -5.73586 | -35.57546 | 2753 ft | 213 kts | 103° |
| 2026-05-04 21:27 | -5.73902 | -35.55636 | 2301 ft | 201 kts | 103° |
| 2026-05-04 21:28 | -5.74047 | -35.54737 | 2072 ft | 193 kts | 102° |
| 2026-05-04 21:28 | -5.74249 | -35.53466 | 2007 ft | 176 kts | 103° |
| 2026-05-04 21:28 | -5.74434 | -35.52309 | 1951 ft | 161 kts | 103° |
| 2026-05-04 21:28 | -5.74614 | -35.51203 | 1970 ft | 158 kts | 102° |
| 2026-05-04 21:29 | -5.74785 | -35.50142 | 1936 ft | 153 kts | 104° |
| 2026-05-04 21:29 | -5.74955 | -35.49098 | 1932 ft | 151 kts | 104° |
| 2026-05-04 21:29 | -5.75129 | -35.48033 | 1933 ft | 153 kts | 104° |
| 2026-05-04 21:29 | -5.75356 | -35.46630 | 1914 ft | 151 kts | 104° |
| 2026-05-04 21:30 | -5.75510 | -35.45659 | 1754 ft | 134 kts | 104° |
| 2026-05-04 21:30 | -5.75606 | -35.45065 | 1628 ft | 124 kts | 103° |
| 2026-05-04 21:30 | -5.75739 | -35.44246 | 1453 ft | 116 kts | 104° |
| 2026-05-04 21:30 | -5.75917 | -35.43174 | 1286 ft | 115 kts | 102° |
| 2026-05-04 21:31 | -5.76111 | -35.41838 | 1030 ft | 116 kts | 103° |
| 2026-05-04 21:31 | -5.76247 | -35.41017 | 893 ft | 119 kts | 104° |
| 2026-05-04 21:31 | -5.76453 | -35.39935 | 660 ft | 118 kts | 100° |
| 2026-05-04 21:32 | -5.76535 | -35.39394 | 598 ft | 118 kts | 101° |
| 2026-05-04 21:32 | -5.76669 | -35.38561 | 441 ft | 120 kts | 101° |
| 2026-05-04 21:32 | -5.76809 | -35.37728 | 303 ft | 120 kts | 102° |
| 2026-05-04 21:32 | -5.76930 | -35.36999 | 290 ft | 83 kts | 99° |
| 2026-05-04 21:33 | -5.76972 | -35.36615 | 290 ft | 39 kts | 83° |
| 2026-05-04 21:33 | -5.76905 | -35.36434 | 290 ft | 20 kts | 55° |
| 2026-05-04 21:33 | -5.76832 | -35.36499 | 290 ft | 18 kts | 278° |
| 2026-05-04 21:33 | -5.76813 | -35.36626 | 290 ft | 17 kts | 279° |
| 2026-05-04 21:34 | -5.76793 | -35.36746 | 290 ft | 17 kts | 279° |
| 2026-05-04 21:34 | -5.76775 | -35.36861 | 290 ft | 16 kts | 279° |
| 2026-05-04 21:34 | -5.76757 | -35.36973 | 290 ft | 15 kts | 279° |
| 2026-05-04 21:34 | -5.76739 | -35.37080 | 290 ft | 15 kts | 278° |
| 2026-05-04 21:35 | -5.76722 | -35.37183 | 290 ft | 14 kts | 279° |
| 2026-05-04 21:35 | -5.76673 | -35.37258 | 290 ft | 13 kts | 358° |
| 2026-05-04 21:35 | -5.76550 | -35.37245 | 290 ft | 12 kts | 343° |
| 2026-05-04 21:35 | -5.76520 | -35.37291 | 290 ft | 12 kts | 278° |
| 2026-05-04 21:36 | -5.76479 | -35.37313 | 290 ft | 6 kts | 14° |
| 2026-05-04 21:36 | -5.76449 | -35.37308 | 290 ft | 2 kts | 9° |
| 2026-05-04 21:36 | -5.76443 | -35.37307 | 290 ft | 0 kts | 9° |